Skip Navigation LinksHome page > Weather > Current weather Skip Navigation Links

Current Weather

Chicago O'Hare Intl, Chicago

For information only: do not use for flight planning or navigation.
Latest weather
Observation time Saturday, September 22, 2018 9:51 AM CDT
Local time Saturday, September 22, 2018 10:58 AM CDT
Flight conditions Visual Meteorological Conditions
Winds
Wind direction East (90°)
Wind speed 17 mph
Visibility 10 mi.
Sky condition
Ceiling unlimited
Cloud layer scattered clouds 3,600 ft.
Cloud layer scattered clouds 25,000 ft.
Temperature 60°F
Dewpoint 42°F
Altimeter 30.33 in.Hg
Pressure change last 3 hours-0.02 in.Hg
Pressure rising more slowly
Derived measurements
Relative humidity 51%
Density altitude 407 ft.
Sea-level pressure 30.33 in.Hg
Remarks
Automated weather observing station with precipitation discriminator.
METAR KORD 221451Z 09015KT 10SM SCT036 SCT250 16/06 A3033 RMK AO2 SLP271 T01560056 51007

Settings

Location code

InnerDrive.Weather 4.0.6770.0 Release CLR 4.0.30319.42000
Copyright ©2018 Inner Drive Technology. All rights reserved. Portions Copyright ©1986-2018 David Braverman.

Find weather

Site navigation


Skip Navigation Links

Place info

Page info

PayPal - The safer, easier way to pay online!

Return home.

Copyright ©2018 Inner Drive Technology. Purveyors of fine, hand-crafted computer software. Page printed 2018-09-22T15:58:19 UTC.